ハルビン の空港の天気 - METARとTAF

ハルビン太平国際空港 ( ZYHB / HRB ) - 中華人民共和国 黒竜江省ハルビン市
飛行場実況気象(Metar)
観測時間02/28 08:00 CST (02/28 00:00 UTC)
風向・風速西北西 4m/s
視程5000m
天気現象
なし
気温-2℃
湿度74%
気圧1015hPa
METARZYHB 280000Z 29004MPS 5000 FU NSC M02/M06 Q1015 NOSIG
過去の天気等 Google飛行場航空写真 Wunderground天気予報

過去48時間のMETAR

飛行場予報(TAF)
発表時間: 2/28 03:27 CST (2/27 19:27 UTC)
予報対象時間: 28日8時 CST ~ 1日8時 CST
風向・風速南南西 5m/s 瞬間風速 10m/s
視程6,000m
全天の8割程度の雲 雲底高度 910m
28日17時 CST ~ 28日21時 CST に一時的に
視程1,600m
天気現象弱いしゅう雪
28日17時 CST ~ 28日18時 CST に徐々に
風向・風速西 5m/s 瞬間風速 10m/s
TAF ZYHB 271927Z 2800/2824 21005G10MPS 6000 BKN030 TX02/2806Z TNM15/21Z
TEMPO 2809/2813 1600 -SHSN
BECMG 2809/2810 28005G10MPS